Big Ridge, Louisiana
Current Conditions -  °F | °C
As of 8:53 PM on Sunday 21 Dec 2014 (Local Time) from KMLU Reporting Station
Clear Clear  
Wind Chill: 49°   Ceiling: Unl
Heat Index: 49°   Visibility: 10mi
Dew Point: 46°   Wind: 3mph
Humidity: 90%   Direction: 120°ESE
Pressure: 29.93"   Gusts: NA
Location:  32.1631°N, 92.1971°W
Report Text: KMLU 220253Z 12003KT 10SM CLR 09/08 A2993 RMK AO2 SLP136 T00940078 58015
Loading
Personal Weather Stations






























Interactive Weather Map New forecast layout! Learn more

10-Day Weather Forecast

Advertisements
Track Severe Weather on mobile